createdAt,value
2018-04-24T00:02:07.251Z,20.95
2018-04-24T00:04:33.897Z,21.58
2018-04-24T00:07:00.505Z,22.05
2018-04-24T00:09:28.344Z,20.80
2018-04-24T00:11:56.320Z,21.45
2018-04-24T00:14:29.210Z,21.00
2018-04-24T00:16:56.796Z,20.90
2018-04-24T00:19:23.451Z,22.58
2018-04-24T00:21:53.574Z,22.52
2018-04-24T00:24:20.330Z,22.27
2018-04-24T00:26:46.938Z,23.10
2018-04-24T00:29:13.678Z,24.00
2018-04-24T00:31:40.301Z,22.65
2018-04-24T00:34:06.938Z,23.30
2018-04-24T00:36:37.310Z,22.98
2018-04-24T00:39:03.922Z,22.40
2018-04-24T00:41:34.240Z,22.23
2018-04-24T00:44:00.866Z,23.75
2018-04-24T00:46:27.659Z,21.73
2018-04-24T00:48:54.414Z,23.58
2018-04-24T00:51:21.058Z,22.77
2018-04-24T00:53:47.732Z,24.33
2018-04-24T00:56:14.375Z,28.33
2018-04-24T00:58:47.580Z,24.45
2018-04-24T01:01:14.514Z,24.05
2018-04-24T01:03:44.168Z,23.15
2018-04-24T01:06:10.893Z,23.38
2018-04-24T01:08:37.598Z,22.13
2018-04-24T01:11:04.309Z,24.37
2018-04-24T01:13:31.046Z,24.42
2018-04-24T01:15:57.671Z,22.58
2018-04-24T01:18:24.499Z,24.25
2018-04-24T01:20:51.115Z,28.17
2018-04-24T01:23:18.630Z,24.27
2018-04-24T01:25:45.785Z,26.45
2018-04-24T01:28:12.445Z,23.12
2018-04-24T01:30:39.965Z,25.17
2018-04-24T01:33:07.986Z,25.20
2018-04-24T01:35:34.637Z,24.48
2018-04-24T01:38:02.244Z,24.63
2018-04-24T01:40:28.862Z,27.23
2018-04-24T01:42:55.490Z,22.92
2018-04-24T01:45:22.136Z,25.98
2018-04-24T01:47:48.787Z,24.05
2018-04-24T01:50:15.481Z,27.15
2018-04-24T01:52:42.150Z,25.50
2018-04-24T01:55:08.828Z,28.20
2018-04-24T01:57:35.469Z,29.70
2018-04-24T02:00:02.132Z,28.87
2018-04-24T02:02:28.812Z,28.55
2018-04-24T02:04:56.313Z,28.67
2018-04-24T02:07:22.948Z,31.95
2018-04-24T02:09:50.507Z,29.90
2018-04-24T02:12:17.941Z,29.50
2018-04-24T02:14:44.873Z,27.58
2018-04-24T02:17:11.524Z,29.85
2018-04-24T02:19:38.217Z,28.15
2018-04-24T02:22:04.850Z,27.55
2018-04-24T02:24:32.358Z,26.58
2018-04-24T02:26:59.042Z,24.95
2018-04-24T02:29:25.699Z,26.65
2018-04-24T02:31:52.701Z,27.35
2018-04-24T02:34:19.314Z,26.52
2018-04-24T02:36:45.941Z,24.73
2018-04-24T02:39:13.099Z,27.08
2018-04-24T02:41:39.758Z,29.42
2018-04-24T02:44:06.414Z,30.55
2018-04-24T02:46:33.283Z,25.88
2018-04-24T02:48:59.913Z,25.27
2018-04-24T02:51:26.594Z,30.12
2018-04-24T02:53:53.247Z,27.00
2018-04-24T02:56:20.658Z,27.40
2018-04-24T02:58:48.502Z,28.30
2018-04-24T03:01:15.986Z,25.90
2018-04-24T03:03:42.670Z,28.15
2018-04-24T03:06:09.338Z,26.33
2018-04-24T03:08:36.019Z,24.83
2018-04-24T03:11:03.379Z,24.05
2018-04-24T03:13:30.014Z,22.90
2018-04-24T03:15:56.697Z,25.77
2018-04-24T03:18:23.862Z,21.33
2018-04-24T03:20:50.506Z,23.50
2018-04-24T03:23:17.121Z,21.45
2018-04-24T03:25:43.857Z,20.83
2018-04-24T03:28:10.514Z,20.73
2018-04-24T03:30:37.667Z,20.67
2018-04-24T03:33:04.408Z,19.60
2018-04-24T03:35:31.030Z,19.85
2018-04-24T03:37:57.663Z,19.42
2018-04-24T03:40:24.331Z,19.23
2018-04-24T03:42:51.018Z,21.00
2018-04-24T03:45:17.770Z,20.17
2018-04-24T03:47:44.394Z,22.48
2018-04-24T03:50:14.999Z,20.30
2018-04-24T03:52:44.102Z,19.92
2018-04-24T03:55:12.114Z,20.60
2018-04-24T03:57:39.593Z,21.95
2018-04-24T04:00:06.570Z,21.05
2018-04-24T04:02:33.204Z,18.60
2018-04-24T04:04:59.967Z,25.40
2018-04-24T04:07:26.566Z,17.62
2018-04-24T04:09:53.653Z,19.77
2018-04-24T04:12:20.300Z,19.10
2018-04-24T04:14:46.981Z,18.50
2018-04-24T04:17:21.585Z,19.33
2018-04-24T04:19:54.770Z,19.62
2018-04-24T04:22:27.140Z,19.55
2018-04-24T04:24:53.773Z,18.45
2018-04-24T04:27:20.486Z,21.02
2018-04-24T04:29:47.143Z,20.05
2018-04-24T04:32:14.615Z,18.52
2018-04-24T04:34:41.352Z,19.95
2018-04-24T04:37:08.006Z,20.10
2018-04-24T04:39:34.666Z,19.23
2018-04-24T04:42:02.545Z,20.23
2018-04-24T04:44:29.178Z,18.25
2018-04-24T04:46:56.493Z,18.87
2018-04-24T04:49:23.106Z,19.05
2018-04-24T04:51:49.735Z,18.48
2018-04-24T04:54:16.421Z,18.52
2018-04-24T04:56:43.055Z,19.05
2018-04-24T04:59:10.686Z,18.15
2018-04-24T05:01:37.336Z,18.08
2018-04-24T05:04:03.967Z,19.77
2018-04-24T05:06:30.585Z,19.20
2018-04-24T05:09:01.766Z,19.60
2018-04-24T05:11:28.404Z,18.48
2018-04-24T05:13:55.123Z,19.60
2018-04-24T05:16:21.982Z,18.98
2018-04-24T05:18:48.611Z,17.25
2018-04-24T05:21:15.226Z,19.67
2018-04-24T05:23:41.842Z,22.20
2018-04-24T05:26:08.467Z,19.70
2018-04-24T05:28:35.097Z,19.27
2018-04-24T05:31:01.725Z,18.92
2018-04-24T05:33:28.343Z,20.35
2018-04-24T05:35:54.949Z,19.48
2018-04-24T05:38:21.594Z,17.25
2018-04-24T05:40:48.204Z,18.02
2018-04-24T05:43:14.839Z,19.15
2018-04-24T05:45:42.339Z,18.23
2018-04-24T05:48:08.990Z,18.98
2018-04-24T05:50:35.618Z,20.30
2018-04-24T05:53:02.268Z,19.75
2018-04-24T05:55:28.894Z,20.70
2018-04-24T05:57:55.547Z,19.10
2018-04-24T06:00:22.143Z,21.80
2018-04-24T06:02:48.759Z,19.90
2018-04-24T06:05:15.380Z,19.10
2018-04-24T06:07:42.047Z,19.60
2018-04-24T06:10:08.688Z,18.33
2018-04-24T06:12:35.333Z,19.40
2018-04-24T06:15:01.963Z,19.65
2018-04-24T06:17:28.629Z,21.33
2018-04-24T06:19:55.255Z,18.90
2018-04-24T06:22:21.882Z,20.27
2018-04-24T06:24:48.495Z,21.75
2018-04-24T06:27:15.142Z,21.42
2018-04-24T06:29:41.758Z,19.50
2018-04-24T06:32:08.483Z,21.80
2018-04-24T06:34:35.120Z,23.00
2018-04-24T06:37:01.801Z,21.02
2018-04-24T06:39:28.413Z,21.00
2018-04-24T06:41:55.025Z,21.02
2018-04-24T06:44:21.634Z,21.25
2018-04-24T06:46:48.271Z,20.65
2018-04-24T06:49:14.906Z,20.20
2018-04-24T06:51:41.536Z,23.42
2018-04-24T06:54:08.173Z,20.95
2018-04-24T06:56:34.778Z,20.08
2018-04-24T06:59:01.400Z,21.48
2018-04-24T07:01:28.031Z,21.37
2018-04-24T07:03:54.658Z,20.27
2018-04-24T07:06:21.266Z,22.50
2018-04-24T07:08:47.904Z,22.30
2018-04-24T07:11:14.514Z,24.20
2018-04-24T07:13:41.146Z,21.48
2018-04-24T07:16:07.812Z,20.33
2018-04-24T07:18:34.401Z,21.58
2018-04-24T07:21:01.013Z,20.70
2018-04-24T07:23:27.650Z,19.30
2018-04-24T07:25:54.271Z,23.20
2018-04-24T07:28:20.911Z,28.17
2018-04-24T07:30:47.520Z,22.55
2018-04-24T07:33:14.137Z,20.98
2018-04-24T07:35:40.750Z,19.77
2018-04-24T07:38:07.377Z,23.27
2018-04-24T07:40:34.035Z,20.73
2018-04-24T07:43:00.650Z,19.40
2018-04-24T07:45:27.290Z,21.48
2018-04-24T07:47:53.908Z,22.30
2018-04-24T07:50:20.530Z,20.35
2018-04-24T07:52:47.141Z,21.20
2018-04-24T07:55:13.793Z,19.77
2018-04-24T07:57:40.393Z,21.27
2018-04-24T08:00:07.034Z,22.60
2018-04-24T08:02:33.651Z,20.02
2018-04-24T08:05:00.282Z,22.08
2018-04-24T08:07:26.903Z,23.23
2018-04-24T08:09:53.539Z,19.55
2018-04-24T08:12:20.841Z,23.05
2018-04-24T08:14:47.482Z,21.08
2018-04-24T08:17:14.115Z,22.33
2018-04-24T08:19:40.737Z,20.73
2018-04-24T08:22:07.394Z,21.92
2018-04-24T08:24:34.014Z,18.80
2018-04-24T08:27:00.641Z,21.00
2018-04-24T08:29:27.256Z,18.90
2018-04-24T08:31:53.895Z,20.98
2018-04-24T08:34:20.510Z,19.60
2018-04-24T08:36:47.144Z,19.90
2018-04-24T08:39:13.752Z,19.90
2018-04-24T08:41:40.369Z,21.87
2018-04-24T08:44:06.996Z,22.58
2018-04-24T08:46:33.614Z,20.60
2018-04-24T08:49:00.281Z,18.90
2018-04-24T08:51:26.891Z,22.80
2018-04-24T08:53:53.531Z,19.52
2018-04-24T08:56:20.803Z,20.20
2018-04-24T08:58:47.451Z,22.70
2018-04-24T09:01:14.066Z,20.83
2018-04-24T09:03:40.698Z,18.45
2018-04-24T09:06:08.301Z,22.85
2018-04-24T09:08:36.000Z,21.50
2018-04-24T09:11:02.671Z,23.02
2018-04-24T09:13:29.432Z,20.52
2018-04-24T09:15:56.060Z,20.73
2018-04-24T09:18:22.817Z,20.25
2018-04-24T09:20:49.499Z,21.95
2018-04-24T09:23:16.218Z,19.48
2018-04-24T09:25:43.035Z,22.77
2018-04-24T09:28:09.783Z,20.65
2018-04-24T09:30:36.431Z,24.52
2018-04-24T09:33:03.034Z,21.10
2018-04-24T09:35:29.718Z,20.35
2018-04-24T09:37:56.335Z,21.75
2018-04-24T09:40:22.961Z,22.60
2018-04-24T09:42:49.571Z,23.15
2018-04-24T09:45:16.202Z,21.20
2018-04-24T09:47:42.835Z,21.10
2018-04-24T09:50:09.475Z,21.17
2018-04-24T09:52:36.124Z,21.02
2018-04-24T09:55:02.747Z,21.20
2018-04-24T09:57:29.383Z,22.25
2018-04-24T09:59:56.657Z,23.70
2018-04-24T10:02:23.296Z,23.80
2018-04-24T10:04:49.941Z,23.27
2018-04-24T10:07:16.562Z,27.08
2018-04-24T10:09:43.179Z,24.05
2018-04-24T10:12:09.827Z,24.45
2018-04-24T10:14:36.447Z,21.92
2018-04-24T10:17:03.134Z,24.83
2018-04-24T10:19:29.797Z,26.55
2018-04-24T10:21:56.433Z,22.25
2018-04-24T10:24:23.626Z,23.40
2018-04-24T10:26:50.242Z,23.12
2018-04-24T10:29:17.006Z,23.20
2018-04-24T10:31:43.669Z,24.20
2018-04-24T10:34:10.315Z,23.23
2018-04-24T10:36:37.873Z,22.50
2018-04-24T10:39:05.338Z,24.40
2018-04-24T10:41:31.975Z,22.62
2018-04-24T10:43:59.689Z,22.65
2018-04-24T10:46:26.338Z,24.25
2018-04-24T10:48:57.144Z,22.90
2018-04-24T10:51:23.783Z,22.00
2018-04-24T10:53:50.435Z,22.90
2018-04-24T10:56:18.010Z,23.95
2018-04-24T10:58:45.262Z,23.90
2018-04-24T11:01:11.942Z,23.15
2018-04-24T11:03:38.800Z,25.20
2018-04-24T11:06:13.951Z,22.27
2018-04-24T11:08:40.672Z,22.52
2018-04-24T11:11:07.557Z,24.23
2018-04-24T11:13:34.644Z,22.02
2018-04-24T11:16:01.507Z,22.33
2018-04-24T11:18:29.090Z,26.98
2018-04-24T11:20:56.381Z,22.75
2018-04-24T11:23:23.046Z,22.83
2018-04-24T11:25:51.132Z,23.02
2018-04-24T11:28:18.681Z,25.17
2018-04-24T11:30:45.381Z,24.05
2018-04-24T11:33:12.820Z,22.60
2018-04-24T11:35:39.539Z,23.65
2018-04-24T11:38:06.963Z,23.62
2018-04-24T11:40:33.612Z,23.35
2018-04-24T11:43:00.294Z,24.33
2018-04-24T11:45:27.614Z,24.60
2018-04-24T11:47:54.328Z,25.60
2018-04-24T11:50:21.005Z,23.58
2018-04-24T11:52:47.637Z,26.20
2018-04-24T11:55:14.363Z,26.42
2018-04-24T11:57:41.662Z,24.80
2018-04-24T12:00:08.328Z,25.92
2018-04-24T12:02:35.029Z,27.92
2018-04-24T12:05:01.637Z,22.80
2018-04-24T12:07:32.244Z,24.55
2018-04-24T12:09:59.678Z,26.27
2018-04-24T12:12:26.944Z,34.42
2018-04-24T12:14:53.583Z,24.98
2018-04-24T12:17:28.613Z,26.70
2018-04-24T12:19:55.287Z,25.90
2018-04-24T12:22:21.964Z,25.55
2018-04-24T12:24:48.612Z,26.33
2018-04-24T12:27:15.313Z,26.20
2018-04-24T12:29:42.291Z,27.05
2018-04-24T12:32:08.954Z,28.38
2018-04-24T12:34:35.602Z,27.73
2018-04-24T12:37:03.406Z,28.42
2018-04-24T12:39:30.366Z,26.55
2018-04-24T12:41:57.034Z,27.30
2018-04-24T12:44:23.690Z,27.87
2018-04-24T12:46:51.552Z,28.70
2018-04-24T12:49:20.654Z,27.80
2018-04-24T12:51:47.462Z,29.77
2018-04-24T12:54:14.116Z,32.78
2018-04-24T12:56:41.562Z,32.17
2018-04-24T12:59:09.860Z,34.40
2018-04-24T13:01:36.475Z,33.90
2018-04-24T13:04:03.799Z,32.55
2018-04-24T13:06:33.847Z,38.92
2018-04-24T13:09:05.573Z,36.67
2018-04-24T13:11:32.839Z,34.25
2018-04-24T13:14:03.651Z,39.83
2018-04-24T13:16:31.203Z,38.13
2018-04-24T13:18:57.885Z,37.70
2018-04-24T13:21:24.542Z,35.83
2018-04-24T13:23:51.182Z,37.22
2018-04-24T13:26:22.251Z,37.72
2018-04-24T13:28:48.960Z,38.25
2018-04-24T13:31:15.675Z,38.03
2018-04-24T13:33:48.211Z,38.33
2018-04-24T13:36:14.854Z,41.45
2018-04-24T13:38:41.489Z,39.13
2018-04-24T13:41:08.204Z,39.30
2018-04-24T13:43:34.774Z,45.17
2018-04-24T13:46:01.419Z,41.72
2018-04-24T13:48:28.041Z,42.15
2018-04-24T13:50:54.705Z,43.85
2018-04-24T13:53:21.343Z,41.03
2018-04-24T13:55:47.997Z,45.40
2018-04-24T13:58:14.646Z,38.17
2018-04-24T14:00:41.317Z,43.90
2018-04-24T14:03:07.983Z,38.58
2018-04-24T14:05:34.611Z,41.97
2018-04-24T14:08:01.285Z,42.88
2018-04-24T14:10:27.946Z,39.70
2018-04-24T14:12:54.591Z,41.37
2018-04-24T14:15:21.227Z,39.50
2018-04-24T14:17:47.872Z,39.45
2018-04-24T14:20:14.618Z,39.20
2018-04-24T14:22:41.258Z,40.10
2018-04-24T14:25:07.887Z,38.60
2018-04-24T14:27:34.529Z,38.72
2018-04-24T14:30:01.150Z,38.88
2018-04-24T14:32:27.782Z,40.63
2018-04-24T14:34:54.423Z,40.65
2018-04-24T14:37:21.062Z,36.38
2018-04-24T14:39:47.704Z,35.42
2018-04-24T14:42:14.362Z,35.75
2018-04-24T14:44:40.999Z,36.22
2018-04-24T14:47:07.641Z,36.90
2018-04-24T14:49:34.276Z,36.25
2018-04-24T14:52:00.916Z,37.15
2018-04-24T14:54:27.550Z,35.25
2018-04-24T14:56:54.174Z,34.75
2018-04-24T14:59:20.819Z,32.95
2018-04-24T15:01:47.439Z,35.47
2018-04-24T15:04:14.079Z,35.17
2018-04-24T15:06:42.707Z,34.00
2018-04-24T15:09:10.073Z,35.25
2018-04-24T15:11:36.707Z,34.95
2018-04-24T15:14:03.360Z,33.63
2018-04-24T15:16:29.976Z,35.83
2018-04-24T15:18:56.622Z,35.80
2018-04-24T15:21:23.254Z,34.03
2018-04-24T15:23:49.926Z,33.63
2018-04-24T15:26:16.558Z,35.78
2018-04-24T15:28:43.238Z,35.45
2018-04-24T15:31:09.862Z,35.28
2018-04-24T15:33:36.502Z,37.25
2018-04-24T15:36:03.127Z,36.70
2018-04-24T15:38:30.532Z,34.67
2018-04-24T15:40:57.164Z,35.30
2018-04-24T15:43:23.808Z,38.83
2018-04-24T15:45:50.455Z,37.10
2018-04-24T15:48:17.090Z,36.90
2018-04-24T15:50:43.726Z,38.63
2018-04-24T15:53:10.426Z,39.00
2018-04-24T15:55:37.477Z,38.50
2018-04-24T15:58:04.115Z,38.15
2018-04-24T16:00:30.791Z,36.40
2018-04-24T16:02:57.487Z,37.80
2018-04-24T16:05:24.092Z,35.88
2018-04-24T16:07:50.708Z,35.30
2018-04-24T16:10:17.372Z,36.63
2018-04-24T16:12:44.004Z,38.10
2018-04-24T16:15:10.642Z,36.67
2018-04-24T16:17:37.298Z,39.85
2018-04-24T16:20:03.963Z,37.65
2018-04-24T16:22:30.608Z,37.72
2018-04-24T16:24:57.281Z,37.40
2018-04-24T16:27:24.603Z,39.00
2018-04-24T16:29:51.292Z,36.85
2018-04-24T16:32:18.679Z,33.60
2018-04-24T16:34:45.353Z,38.05
2018-04-24T16:37:11.993Z,35.83
2018-04-24T16:39:38.614Z,34.50
2018-04-24T16:42:05.365Z,37.88
2018-04-24T16:44:32.052Z,37.00
2018-04-24T16:46:58.734Z,34.60
2018-04-24T16:49:25.446Z,37.58
2018-04-24T16:51:52.631Z,40.90
2018-04-24T16:54:19.555Z,37.30
2018-04-24T16:56:46.119Z,40.03
2018-04-24T16:59:13.554Z,39.83
2018-04-24T17:01:40.268Z,40.53
2018-04-24T17:04:06.925Z,37.00
2018-04-24T17:06:37.529Z,38.30
2018-04-24T17:09:07.978Z,40.10
2018-04-24T17:11:38.712Z,40.25
2018-04-24T17:14:06.158Z,38.00
2018-04-24T17:16:33.461Z,39.15
2018-04-24T17:19:00.178Z,40.50
2018-04-24T17:21:26.871Z,36.67
2018-04-24T17:23:53.579Z,36.33
2018-04-24T17:26:20.999Z,37.17
2018-04-24T17:28:47.698Z,37.35
2018-04-24T17:31:14.371Z,38.35
2018-04-24T17:33:41.810Z,39.72
2018-04-24T17:36:12.152Z,38.50
2018-04-24T17:38:38.871Z,40.75
2018-04-24T17:41:05.557Z,38.50
2018-04-24T17:43:32.275Z,41.40
2018-04-24T17:45:59.813Z,37.45
2018-04-24T17:48:26.467Z,39.28
2018-04-24T17:50:53.840Z,40.95
2018-04-24T17:53:20.491Z,42.47
2018-04-24T17:55:47.280Z,40.03
2018-04-24T17:58:13.988Z,41.45
2018-04-24T18:00:40.967Z,39.47
2018-04-24T18:03:08.363Z,39.70
2018-04-24T18:05:35.079Z,37.67
2018-04-24T18:08:02.145Z,39.45
2018-04-24T18:10:29.214Z,38.45
2018-04-24T18:13:02.676Z,40.63
2018-04-24T18:15:31.799Z,40.20
2018-04-24T18:27:47.726Z,38.17
2018-04-24T18:30:14.301Z,42.47
2018-04-24T18:32:44.808Z,39.90
2018-04-24T18:35:12.406Z,40.58
2018-04-24T18:37:40.515Z,42.78
2018-04-24T18:40:08.429Z,40.70
2018-04-24T18:42:38.940Z,42.03
2018-04-24T18:45:05.685Z,38.53
2018-04-24T18:47:32.450Z,38.88
2018-04-24T18:49:59.225Z,41.70
2018-04-24T18:52:25.986Z,41.37
2018-04-24T18:54:52.726Z,40.63
2018-04-24T18:57:19.406Z,41.30
2018-04-24T18:59:46.091Z,41.78
2018-04-24T19:02:12.770Z,42.10
2018-04-24T19:14:24.577Z,40.72
2018-04-24T19:16:51.368Z,40.65
2018-04-24T19:19:25.320Z,46.45
2018-04-24T19:21:51.998Z,41.85
2018-04-24T19:24:24.366Z,38.42
2018-04-24T19:26:51.186Z,43.45
2018-04-24T19:29:17.977Z,41.80
2018-04-24T19:31:51.641Z,42.88
2018-04-24T19:34:18.548Z,45.72
2018-04-24T19:36:45.222Z,44.08
2018-04-24T19:39:21.621Z,45.58
2018-04-24T19:41:48.674Z,44.38
2018-04-24T19:44:15.375Z,40.92
2018-04-24T19:46:43.461Z,44.63
2018-04-24T19:49:16.019Z,43.03
2018-04-24T19:51:43.212Z,44.30
2018-04-24T19:54:09.851Z,42.70
2018-04-24T19:56:36.572Z,41.22
2018-04-24T19:59:03.230Z,42.67
2018-04-24T20:01:29.884Z,42.85
2018-04-24T20:03:56.516Z,42.60
2018-04-24T20:06:23.200Z,44.80
2018-04-24T20:08:49.831Z,40.75
2018-04-24T20:11:20.707Z,44.60
2018-04-24T20:13:47.453Z,43.78
2018-04-24T20:16:14.279Z,44.72
2018-04-24T20:18:40.940Z,38.78
2018-04-24T20:21:07.576Z,40.60
2018-04-24T20:23:34.233Z,43.08
2018-04-24T20:26:00.891Z,41.67
2018-04-24T20:28:27.598Z,40.40
2018-04-24T20:30:54.243Z,38.67
2018-04-24T20:33:21.150Z,38.22
2018-04-24T20:35:51.691Z,38.60
2018-04-24T20:38:18.386Z,37.38
2018-04-24T20:40:45.035Z,37.58
2018-04-24T20:43:12.398Z,37.67
2018-04-24T20:45:43.165Z,38.92
2018-04-24T20:48:09.837Z,36.17
2018-04-24T20:50:36.604Z,38.00
2018-04-24T20:53:12.392Z,41.40
2018-04-24T20:55:38.927Z,36.65
2018-04-24T20:58:06.398Z,38.42
2018-04-24T21:00:33.142Z,39.30
2018-04-24T21:02:59.816Z,37.72
2018-04-24T21:05:28.170Z,34.55
2018-04-24T21:07:55.677Z,37.20
2018-04-24T21:10:22.373Z,40.00
2018-04-24T21:12:49.058Z,38.38
2018-04-24T21:15:15.765Z,38.50
2018-04-24T21:17:44.939Z,42.35
2018-04-24T21:20:11.589Z,36.38
2018-04-24T21:22:39.006Z,39.55
2018-04-24T21:25:05.707Z,37.25
2018-04-24T21:27:32.482Z,37.25
2018-04-24T21:29:59.106Z,41.92
2018-04-24T21:32:25.815Z,37.60
2018-04-24T21:34:52.438Z,37.97
2018-04-24T21:37:19.328Z,39.10
2018-04-24T21:39:46.491Z,40.08
2018-04-24T21:42:14.010Z,37.58
2018-04-24T21:44:40.746Z,38.50
2018-04-24T21:47:07.477Z,38.90
2018-04-24T21:49:34.688Z,36.95
2018-04-24T21:52:01.326Z,37.67
2018-04-24T21:54:27.986Z,35.90
2018-04-24T21:56:54.642Z,36.17
2018-04-24T21:59:21.935Z,38.92
2018-04-24T22:01:48.658Z,39.67
2018-04-24T22:04:15.322Z,39.78
2018-04-24T22:06:41.993Z,37.60
2018-04-24T22:09:08.662Z,35.95
2018-04-24T22:11:35.334Z,37.60
2018-04-24T22:14:02.033Z,36.63
2018-04-24T22:16:28.737Z,35.28
2018-04-24T22:18:55.423Z,35.10
2018-04-24T22:21:26.486Z,41.55
2018-04-24T22:23:53.162Z,38.88
2018-04-24T22:26:19.799Z,36.88
2018-04-24T22:28:46.451Z,34.83
2018-04-24T22:31:13.082Z,37.03
2018-04-24T22:33:39.883Z,37.90
2018-04-24T22:36:07.407Z,36.13
2018-04-24T22:38:34.047Z,38.67
2018-04-24T22:41:07.178Z,34.75
2018-04-24T22:43:34.682Z,38.47
2018-04-24T22:46:01.343Z,37.88
2018-04-24T22:48:36.531Z,35.40
2018-04-24T22:51:03.205Z,36.80
2018-04-24T22:53:33.897Z,36.53
2018-04-24T22:56:01.411Z,39.90
2018-04-24T22:58:29.060Z,41.25
2018-04-24T23:00:55.729Z,35.55
2018-04-24T23:03:22.734Z,36.38
2018-04-24T23:05:49.474Z,34.83
2018-04-24T23:08:17.012Z,33.58
2018-04-24T23:10:49.585Z,38.75
2018-04-24T23:13:22.177Z,33.80
2018-04-24T23:15:57.313Z,33.58
2018-04-24T23:18:29.808Z,35.90
2018-04-24T23:20:56.373Z,35.85
2018-04-24T23:23:27.223Z,35.80
2018-04-24T23:25:53.890Z,36.03
2018-04-24T23:28:20.623Z,34.60
2018-04-24T23:30:51.722Z,33.10
2018-04-24T23:33:18.399Z,37.33
2018-04-24T23:35:45.026Z,34.30
2018-04-24T23:38:11.727Z,34.72
2018-04-24T23:40:38.430Z,36.55
2018-04-24T23:43:05.685Z,34.63
2018-04-24T23:45:32.825Z,34.22
2018-04-24T23:47:59.555Z,36.30
2018-04-24T23:50:26.192Z,37.53
2018-04-24T23:52:52.826Z,37.30
2018-04-24T23:55:19.490Z,37.03
2018-04-24T23:57:46.310Z,36.47
